createdAt,value
2019-03-05T00:00:09.608Z,990.1
2019-03-05T00:01:11.003Z,990.1
2019-03-05T00:02:12.394Z,990.1
2019-03-05T00:03:13.790Z,990.0
2019-03-05T00:04:15.186Z,990.0
2019-03-05T00:05:16.580Z,990.0
2019-03-05T00:06:17.969Z,990.0
2019-03-05T00:07:19.368Z,990.0
2019-03-05T00:08:20.764Z,990.1
2019-03-05T00:09:22.161Z,990.0
2019-03-05T00:10:23.562Z,990.0
2019-03-05T00:11:24.966Z,990.0
2019-03-05T00:12:26.349Z,990.0
2019-03-05T00:13:27.749Z,990.0
2019-03-05T00:14:29.143Z,990.1
2019-03-05T00:15:30.544Z,990.1
2019-03-05T00:16:31.935Z,990.1
2019-03-05T00:17:33.333Z,990.0
2019-03-05T00:18:34.736Z,990.1
2019-03-05T00:19:36.133Z,990.0
2019-03-05T00:20:37.543Z,990.0
2019-03-05T00:21:38.938Z,990.1
2019-03-05T00:22:40.331Z,990.1
2019-03-05T00:23:41.734Z,990.2
2019-03-05T00:24:43.129Z,990.2
2019-03-05T00:25:44.522Z,990.2
2019-03-05T00:26:45.979Z,990.3
2019-03-05T00:27:47.425Z,990.3
2019-03-05T00:28:48.814Z,990.3
2019-03-05T00:29:50.257Z,990.3
2019-03-05T00:30:51.682Z,990.3
2019-03-05T00:31:53.080Z,990.4
2019-03-05T00:32:54.515Z,990.3
2019-03-05T00:33:55.881Z,990.4
2019-03-05T00:34:57.270Z,990.4
2019-03-05T00:35:58.663Z,990.5
2019-03-05T00:37:00.056Z,990.5
2019-03-05T00:38:01.450Z,990.5
2019-03-05T00:39:02.855Z,990.5
2019-03-05T00:40:04.247Z,990.4
2019-03-05T00:41:05.639Z,990.4
2019-03-05T00:42:07.069Z,990.4
2019-03-05T00:43:08.461Z,990.5
2019-03-05T00:44:09.875Z,990.5
2019-03-05T00:45:11.277Z,990.6
2019-03-05T00:46:12.672Z,990.5
2019-03-05T00:47:14.074Z,990.6
2019-03-05T00:48:15.472Z,990.5
2019-03-05T00:49:16.861Z,990.5
2019-03-05T00:50:18.260Z,990.6
2019-03-05T00:51:24.861Z,990.6
2019-03-05T00:52:21.031Z,990.6
2019-03-05T00:53:22.428Z,990.6
2019-03-05T00:54:23.823Z,990.6
2019-03-05T00:55:25.217Z,990.6
2019-03-05T00:56:26.611Z,990.6
2019-03-05T00:57:28.006Z,990.6
2019-03-05T00:58:29.399Z,990.6
2019-03-05T00:59:30.796Z,990.6
2019-03-05T01:00:32.184Z,990.6
2019-03-05T01:01:33.581Z,990.6
2019-03-05T01:02:34.973Z,990.6
2019-03-05T01:03:36.370Z,990.6
2019-03-05T01:04:37.773Z,990.7
2019-03-05T01:05:39.167Z,990.6
2019-03-05T01:06:40.555Z,990.7
2019-03-05T01:07:41.951Z,990.7
2019-03-05T01:08:43.440Z,990.7
2019-03-05T01:09:44.839Z,990.7
2019-03-05T01:10:46.230Z,990.7
2019-03-05T01:11:47.622Z,990.7
2019-03-05T01:12:49.022Z,990.7
2019-03-05T01:13:50.409Z,990.6
2019-03-05T01:14:51.803Z,990.6
2019-03-05T01:15:53.202Z,990.7
2019-03-05T01:16:54.593Z,990.7
2019-03-05T01:17:55.988Z,990.7
2019-03-05T01:18:57.379Z,990.7
2019-03-05T01:19:58.774Z,990.7
2019-03-05T01:21:00.171Z,990.7
2019-03-05T01:22:01.573Z,990.7
2019-03-05T01:23:02.968Z,990.7
2019-03-05T01:24:04.359Z,990.7
2019-03-05T01:25:05.752Z,990.7
2019-03-05T01:26:07.146Z,990.7
2019-03-05T01:27:08.536Z,990.7
2019-03-05T01:28:09.984Z,990.8
2019-03-05T01:29:11.330Z,990.7
2019-03-05T01:30:12.718Z,990.7
2019-03-05T01:31:14.118Z,990.8
2019-03-05T01:32:15.511Z,990.7
2019-03-05T01:33:16.903Z,990.7
2019-03-05T01:34:18.295Z,990.7
2019-03-05T01:35:19.689Z,990.8
2019-03-05T01:36:21.084Z,990.7
2019-03-05T01:37:22.478Z,990.7
2019-03-05T01:38:23.872Z,990.7
2019-03-05T01:39:25.268Z,990.8
2019-03-05T01:40:26.659Z,990.8
2019-03-05T01:41:28.054Z,990.8
2019-03-05T01:42:29.454Z,990.7
2019-03-05T01:43:30.849Z,990.7
2019-03-05T01:44:32.245Z,990.7
2019-03-05T01:45:33.642Z,990.7
2019-03-05T01:46:35.037Z,990.8
2019-03-05T01:47:36.434Z,990.7
2019-03-05T01:48:37.831Z,990.8
2019-03-05T01:49:39.226Z,990.7
2019-03-05T01:50:40.621Z,990.7
2019-03-05T01:51:42.013Z,990.7
2019-03-05T01:52:43.407Z,990.7
2019-03-05T01:53:44.804Z,990.7
2019-03-05T01:54:46.185Z,990.7
2019-03-05T01:55:47.579Z,990.8
2019-03-05T01:56:48.971Z,990.8
2019-03-05T01:57:50.427Z,990.7
2019-03-05T01:58:51.831Z,990.8
2019-03-05T01:59:53.236Z,990.8
2019-03-05T02:00:54.635Z,990.8
2019-03-05T02:01:56.027Z,990.8
2019-03-05T02:02:57.425Z,990.8
2019-03-05T02:03:58.823Z,990.8
2019-03-05T02:05:00.376Z,990.8
2019-03-05T02:06:01.574Z,990.7
2019-03-05T02:07:02.966Z,990.7
2019-03-05T02:08:04.357Z,990.7
2019-03-05T02:09:05.748Z,990.7
2019-03-05T02:10:07.143Z,990.7
2019-03-05T02:11:08.539Z,990.7
2019-03-05T02:12:09.936Z,990.7
2019-03-05T02:13:11.327Z,990.7
2019-03-05T02:14:12.762Z,990.7
2019-03-05T02:15:14.112Z,990.6
2019-03-05T02:16:15.506Z,990.7
2019-03-05T02:17:16.909Z,990.6
2019-03-05T02:18:18.303Z,990.7
2019-03-05T02:19:19.696Z,990.6
2019-03-05T02:20:21.094Z,990.7
2019-03-05T02:21:22.569Z,990.7
2019-03-05T02:22:23.855Z,990.7
2019-03-05T02:23:25.248Z,990.6
2019-03-05T02:24:26.646Z,990.7
2019-03-05T02:25:28.040Z,990.8
2019-03-05T02:26:29.441Z,990.7
2019-03-05T02:27:30.834Z,990.7
2019-03-05T02:28:32.227Z,990.7
2019-03-05T02:29:33.620Z,990.7
2019-03-05T02:30:35.019Z,990.7
2019-03-05T02:31:36.417Z,990.7
2019-03-05T02:32:37.813Z,990.6
2019-03-05T02:33:39.207Z,990.7
2019-03-05T02:34:40.605Z,990.7
2019-03-05T02:35:42.001Z,990.8
2019-03-05T02:36:43.396Z,990.8
2019-03-05T02:37:44.806Z,990.8
2019-03-05T02:38:46.229Z,990.7
2019-03-05T02:39:47.620Z,990.8
2019-03-05T02:40:49.014Z,990.7
2019-03-05T02:41:50.413Z,990.8
2019-03-05T02:42:51.805Z,990.8
2019-03-05T02:43:53.197Z,990.7
2019-03-05T02:44:54.587Z,990.8
2019-03-05T02:45:55.979Z,990.7
2019-03-05T02:46:57.374Z,990.8
2019-03-05T02:47:58.852Z,990.8
2019-03-05T02:49:00.255Z,990.8
2019-03-05T02:50:01.662Z,990.8
2019-03-05T02:51:03.079Z,990.8
2019-03-05T02:52:04.468Z,990.8
2019-03-05T02:53:05.863Z,990.8
2019-03-05T02:54:07.253Z,990.7
2019-03-05T02:55:08.647Z,990.7
2019-03-05T02:56:10.051Z,990.7
2019-03-05T02:57:11.457Z,990.7
2019-03-05T02:58:12.836Z,990.7
2019-03-05T02:59:14.229Z,990.7
2019-03-05T03:00:15.623Z,990.8
2019-03-05T03:01:17.015Z,990.8
2019-03-05T03:02:18.405Z,990.8
2019-03-05T03:03:19.799Z,990.8
2019-03-05T03:04:21.197Z,990.8
2019-03-05T03:05:22.605Z,990.7
2019-03-05T03:06:23.988Z,990.8
2019-03-05T03:07:25.388Z,990.8
2019-03-05T03:08:26.784Z,990.8
2019-03-05T03:09:28.170Z,991.0
2019-03-05T03:10:29.576Z,990.8
2019-03-05T03:11:30.971Z,990.8
2019-03-05T03:12:32.365Z,990.7
2019-03-05T03:13:33.759Z,990.8
2019-03-05T03:14:35.157Z,990.8
2019-03-05T03:15:36.549Z,990.8
2019-03-05T03:16:37.940Z,990.8
2019-03-05T03:17:39.336Z,990.8
2019-03-05T03:18:40.730Z,990.8
2019-03-05T03:19:42.122Z,990.8
2019-03-05T03:20:43.524Z,990.8
2019-03-05T03:21:44.921Z,990.8
2019-03-05T03:22:46.314Z,990.8
2019-03-05T03:23:47.707Z,990.8
2019-03-05T03:24:49.105Z,990.8
2019-03-05T03:25:50.502Z,990.8
2019-03-05T03:26:51.898Z,990.8
2019-03-05T03:27:53.414Z,990.8
2019-03-05T03:28:54.806Z,990.8
2019-03-05T03:29:56.202Z,990.7
2019-03-05T03:30:57.609Z,990.8
2019-03-05T03:31:59.006Z,990.7
2019-03-05T03:33:00.403Z,990.7
2019-03-05T03:34:01.819Z,990.7
2019-03-05T03:35:03.204Z,990.6
2019-03-05T03:36:04.608Z,990.7
2019-03-05T03:37:05.993Z,990.7
2019-03-05T03:38:07.436Z,990.7
2019-03-05T03:39:08.839Z,990.7
2019-03-05T03:40:10.233Z,990.7
2019-03-05T03:41:11.628Z,990.7
2019-03-05T03:42:13.020Z,990.8
2019-03-05T03:43:14.493Z,990.8
2019-03-05T03:44:15.772Z,990.8
2019-03-05T03:45:17.165Z,990.7
2019-03-05T03:46:18.557Z,990.8
2019-03-05T03:47:19.946Z,990.7
2019-03-05T03:48:21.340Z,990.8
2019-03-05T03:49:22.731Z,990.8
2019-03-05T03:50:24.147Z,990.8
2019-03-05T03:51:25.518Z,990.8
2019-03-05T03:52:26.912Z,990.9
2019-03-05T03:53:28.324Z,990.8
2019-03-05T03:54:29.715Z,990.9
2019-03-05T03:55:31.106Z,990.8
2019-03-05T03:56:32.514Z,990.9
2019-03-05T03:57:33.903Z,990.8
2019-03-05T03:58:35.300Z,990.8
2019-03-05T03:59:36.697Z,990.9
2019-03-05T04:00:38.088Z,990.9
2019-03-05T04:01:39.480Z,990.9
2019-03-05T04:02:40.870Z,990.9
2019-03-05T04:03:42.263Z,990.9
2019-03-05T04:04:43.655Z,990.8
2019-03-05T04:05:45.050Z,990.8
2019-03-05T04:06:46.440Z,990.9
2019-03-05T04:07:47.834Z,990.9
2019-03-05T04:08:49.228Z,990.9
2019-03-05T04:09:50.622Z,990.9
2019-03-05T04:10:52.017Z,990.8
2019-03-05T04:11:53.420Z,990.9
2019-03-05T04:12:54.817Z,990.8
2019-03-05T04:13:59.402Z,990.9
2019-03-05T04:14:57.582Z,990.8
2019-03-05T04:15:58.968Z,990.8
2019-03-05T04:17:00.359Z,990.8
2019-03-05T04:18:01.749Z,990.9
2019-03-05T04:19:03.143Z,990.8
2019-03-05T04:20:04.536Z,990.9
2019-03-05T04:21:05.969Z,990.9
2019-03-05T04:22:07.365Z,990.9
2019-03-05T04:23:08.756Z,990.9
2019-03-05T04:24:10.153Z,990.9
2019-03-05T04:25:11.539Z,990.9
2019-03-05T04:26:12.934Z,990.9
2019-03-05T04:27:14.388Z,990.9
2019-03-05T04:28:15.803Z,990.9
2019-03-05T04:29:17.197Z,990.9
2019-03-05T04:30:18.589Z,990.9
2019-03-05T04:31:19.981Z,990.9
2019-03-05T04:32:23.682Z,990.9
2019-03-05T04:33:22.887Z,990.9
2019-03-05T04:34:24.109Z,990.9
2019-03-05T04:35:25.502Z,990.9
2019-03-05T04:36:26.902Z,990.9
2019-03-05T04:37:28.295Z,990.9
2019-03-05T04:38:29.702Z,991.0
2019-03-05T04:39:31.106Z,990.9
2019-03-05T04:40:32.505Z,991.0
2019-03-05T04:41:33.898Z,990.9
2019-03-05T04:42:35.291Z,991.0
2019-03-05T04:43:36.731Z,991.0
2019-03-05T04:44:38.130Z,991.0
2019-03-05T04:45:39.523Z,991.0
2019-03-05T04:46:40.917Z,991.0
2019-03-05T04:47:42.310Z,991.1
2019-03-05T04:48:43.705Z,991.0
2019-03-05T04:49:45.096Z,991.1
2019-03-05T04:50:46.489Z,991.1
2019-03-05T04:51:47.886Z,991.1
2019-03-05T04:52:49.281Z,991.0
2019-03-05T04:53:50.680Z,991.1
2019-03-05T04:54:52.083Z,991.1
2019-03-05T04:55:53.479Z,991.1
2019-03-05T04:56:54.873Z,991.1
2019-03-05T04:57:56.266Z,991.1
2019-03-05T04:58:57.656Z,991.1
2019-03-05T04:59:59.052Z,991.1
2019-03-05T05:01:00.446Z,991.1
2019-03-05T05:02:01.840Z,991.1
2019-03-05T05:03:03.279Z,991.0
2019-03-05T05:04:04.673Z,991.0
2019-03-05T05:05:06.070Z,991.1
2019-03-05T05:06:07.465Z,991.0
2019-03-05T05:07:08.856Z,991.0
2019-03-05T05:08:10.254Z,991.0
2019-03-05T05:09:11.649Z,991.0
2019-03-05T05:10:13.047Z,990.9
2019-03-05T05:11:14.445Z,991.0
2019-03-05T05:12:15.841Z,990.9
2019-03-05T05:13:17.233Z,990.9
2019-03-05T05:14:18.628Z,990.9
2019-03-05T05:15:20.024Z,990.9
2019-03-05T05:16:21.416Z,990.9
2019-03-05T05:17:22.844Z,990.9
2019-03-05T05:18:24.263Z,990.9
2019-03-05T05:19:27.291Z,990.9
2019-03-05T05:20:27.016Z,990.9
2019-03-05T05:21:28.408Z,990.9
2019-03-05T05:22:29.807Z,990.9
2019-03-05T05:23:31.194Z,990.9
2019-03-05T05:24:32.598Z,990.9
2019-03-05T05:25:33.995Z,990.9
2019-03-05T05:26:35.437Z,990.9
2019-03-05T05:27:36.827Z,990.8
2019-03-05T05:28:38.223Z,990.8
2019-03-05T05:29:39.623Z,990.8
2019-03-05T05:30:41.033Z,990.8
2019-03-05T05:31:42.407Z,990.8
2019-03-05T05:32:43.807Z,990.7
2019-03-05T05:33:45.199Z,990.8
2019-03-05T05:34:46.590Z,990.9
2019-03-05T05:35:47.993Z,990.8
2019-03-05T05:36:49.382Z,990.9
2019-03-05T05:37:50.775Z,990.9
2019-03-05T05:38:52.167Z,990.9
2019-03-05T05:39:53.561Z,990.9
2019-03-05T05:40:54.956Z,990.9
2019-03-05T05:41:56.347Z,990.9
2019-03-05T05:42:57.736Z,990.9
2019-03-05T05:43:59.137Z,990.9
2019-03-05T05:45:00.525Z,990.8
2019-03-05T05:46:01.923Z,990.9
2019-03-05T05:47:03.320Z,990.9
2019-03-05T05:48:04.720Z,990.9
2019-03-05T05:49:06.111Z,990.9
2019-03-05T05:50:07.503Z,991.0
2019-03-05T05:51:08.942Z,991.0
2019-03-05T05:52:10.340Z,991.0
2019-03-05T05:53:11.737Z,991.0
2019-03-05T05:54:13.137Z,990.9
2019-03-05T05:55:14.538Z,991.0
2019-03-05T05:56:17.377Z,991.0
2019-03-05T05:57:18.776Z,991.0
2019-03-05T05:58:20.175Z,991.1
2019-03-05T05:59:21.573Z,991.1
2019-03-05T06:00:22.970Z,991.1
2019-03-05T06:01:24.366Z,991.1
2019-03-05T06:02:25.765Z,991.1
2019-03-05T06:03:27.166Z,991.2
2019-03-05T06:04:28.662Z,991.1
2019-03-05T06:05:30.065Z,991.1
2019-03-05T06:06:31.506Z,991.1
2019-03-05T06:07:32.910Z,991.1
2019-03-05T06:08:34.307Z,991.1
2019-03-05T06:09:35.707Z,991.1
2019-03-05T06:10:37.141Z,991.1
2019-03-05T06:11:38.539Z,991.1
2019-03-05T06:12:39.940Z,991.1
2019-03-05T06:13:41.333Z,991.1
2019-03-05T06:14:42.726Z,991.1
2019-03-05T06:15:44.122Z,991.1
2019-03-05T06:16:45.545Z,991.0
2019-03-05T06:17:46.939Z,991.1
2019-03-05T06:18:48.335Z,991.1
2019-03-05T06:19:49.729Z,991.1
2019-03-05T06:20:51.125Z,991.0
2019-03-05T06:21:52.521Z,991.0
2019-03-05T06:22:53.916Z,991.0
2019-03-05T06:23:55.317Z,991.0
2019-03-05T06:24:56.705Z,991.0
2019-03-05T06:25:58.110Z,991.1
2019-03-05T06:26:59.506Z,991.0
2019-03-05T06:28:00.901Z,991.1
2019-03-05T06:29:02.305Z,991.1
2019-03-05T06:30:03.715Z,991.1
2019-03-05T06:31:05.104Z,991.1
2019-03-05T06:32:06.503Z,991.1
2019-03-05T06:33:07.900Z,991.0
2019-03-05T06:34:09.301Z,991.0
2019-03-05T06:35:10.694Z,991.1
2019-03-05T06:36:12.092Z,991.1
2019-03-05T06:37:13.490Z,991.1
2019-03-05T06:38:14.890Z,991.1
2019-03-05T06:39:16.284Z,991.1
2019-03-05T06:40:17.677Z,991.0
2019-03-05T06:41:19.071Z,991.1
2019-03-05T06:42:20.471Z,991.0
2019-03-05T06:43:21.875Z,991.0
2019-03-05T06:44:23.313Z,991.1
2019-03-05T06:45:24.669Z,991.1
2019-03-05T06:46:26.066Z,991.1
2019-03-05T06:47:27.465Z,991.1
2019-03-05T06:48:28.863Z,991.1
2019-03-05T06:49:30.261Z,991.1
2019-03-05T06:50:31.661Z,991.2
2019-03-05T06:51:33.055Z,991.1
2019-03-05T06:52:34.452Z,991.1
2019-03-05T06:53:35.859Z,991.1
2019-03-05T06:54:37.296Z,991.1
2019-03-05T06:55:38.701Z,991.1
2019-03-05T06:56:40.096Z,991.2
2019-03-05T06:57:41.490Z,991.2
2019-03-05T06:58:42.891Z,991.2
2019-03-05T06:59:44.292Z,991.2
2019-03-05T07:00:45.686Z,991.2
2019-03-05T07:01:47.079Z,991.3
2019-03-05T07:02:48.474Z,991.2
2019-03-05T07:03:49.873Z,991.3
2019-03-05T07:04:51.268Z,991.4
2019-03-05T07:05:52.684Z,991.4
2019-03-05T07:06:54.082Z,991.4
2019-03-05T07:07:55.481Z,991.4
2019-03-05T07:08:56.875Z,991.5
2019-03-05T07:09:58.351Z,991.5
2019-03-05T07:10:59.793Z,991.5
2019-03-05T07:12:01.194Z,991.5
2019-03-05T07:13:02.590Z,991.5
2019-03-05T07:14:04.012Z,991.5
2019-03-05T07:15:05.377Z,991.5
2019-03-05T07:16:06.775Z,991.5
2019-03-05T07:17:08.166Z,991.5
2019-03-05T07:18:09.573Z,991.5
2019-03-05T07:19:10.960Z,991.6
2019-03-05T07:20:12.356Z,991.6
2019-03-05T07:21:13.755Z,991.6
2019-03-05T07:22:15.167Z,991.6
2019-03-05T07:23:16.563Z,991.5
2019-03-05T07:24:17.960Z,991.6
2019-03-05T07:25:19.356Z,991.6
2019-03-05T07:26:20.751Z,991.7
2019-03-05T07:27:22.149Z,991.6
2019-03-05T07:28:23.546Z,991.6
2019-03-05T07:29:24.940Z,991.7
2019-03-05T07:30:26.341Z,991.7
2019-03-05T07:31:27.734Z,991.7
2019-03-05T07:32:29.129Z,991.7
2019-03-05T07:33:30.570Z,991.7
2019-03-05T07:34:31.966Z,991.7
2019-03-05T07:35:33.361Z,991.7
2019-03-05T07:36:34.755Z,991.6
2019-03-05T07:37:36.152Z,991.6
2019-03-05T07:38:37.546Z,991.6
2019-03-05T07:39:38.959Z,991.6
2019-03-05T07:40:40.352Z,991.6
2019-03-05T07:41:41.749Z,991.6
2019-03-05T07:42:43.158Z,991.6
2019-03-05T07:43:44.551Z,991.7
2019-03-05T07:44:45.946Z,991.7
2019-03-05T07:45:47.402Z,991.7
2019-03-05T07:46:48.816Z,991.7
2019-03-05T07:47:50.213Z,991.7
2019-03-05T07:48:51.610Z,991.6
2019-03-05T07:49:53.007Z,991.6
2019-03-05T07:50:54.404Z,991.7
2019-03-05T07:51:55.797Z,991.7
2019-03-05T07:52:57.193Z,991.7
2019-03-05T07:53:58.587Z,991.7
2019-03-05T07:54:59.989Z,991.8
2019-03-05T07:56:01.385Z,991.7
2019-03-05T07:57:02.779Z,991.7
2019-03-05T07:58:04.174Z,991.7
2019-03-05T07:59:05.570Z,991.8
2019-03-05T08:00:06.966Z,991.8
2019-03-05T08:01:08.361Z,991.8
2019-03-05T08:02:09.759Z,991.8
2019-03-05T08:03:11.152Z,991.8
2019-03-05T08:04:12.551Z,991.8
2019-03-05T08:05:14.022Z,991.8
2019-03-05T08:06:15.304Z,991.8
2019-03-05T08:07:16.704Z,991.8
2019-03-05T08:08:26.381Z,991.8
2019-03-05T08:09:19.484Z,991.8
2019-03-05T08:10:20.885Z,991.8
2019-03-05T08:11:22.274Z,991.8
2019-03-05T08:12:23.676Z,991.9
2019-03-05T08:13:25.072Z,991.8
2019-03-05T08:14:26.482Z,991.9
2019-03-05T08:15:27.866Z,991.9
2019-03-05T08:16:29.263Z,991.9
2019-03-05T08:17:30.685Z,991.9
2019-03-05T08:18:32.082Z,992.0
2019-03-05T08:19:33.477Z,992.0
2019-03-05T08:20:34.871Z,992.0
2019-03-05T08:21:36.266Z,992.0
2019-03-05T08:22:37.663Z,991.9
2019-03-05T08:23:39.070Z,992.0
2019-03-05T08:24:40.462Z,992.0
2019-03-05T08:25:41.859Z,992.0
2019-03-05T08:26:43.259Z,992.0
2019-03-05T08:27:44.658Z,992.0
2019-03-05T08:28:46.053Z,992.0
2019-03-05T08:29:47.452Z,992.0
2019-03-05T08:30:48.849Z,992.0
2019-03-05T08:31:50.248Z,992.1
2019-03-05T08:32:51.652Z,992.1
2019-03-05T08:33:53.144Z,992.1
2019-03-05T08:34:54.529Z,992.1
2019-03-05T08:35:55.925Z,992.1
2019-03-05T08:36:57.345Z,992.1
2019-03-05T08:37:58.751Z,992.2
2019-03-05T08:39:00.148Z,992.2
2019-03-05T08:40:01.548Z,992.1
2019-03-05T08:41:02.942Z,992.2
2019-03-05T08:42:04.336Z,992.2
2019-03-05T08:43:05.728Z,992.2
2019-03-05T08:44:07.128Z,992.2
2019-03-05T08:45:08.522Z,992.2
2019-03-05T08:46:09.920Z,992.3
2019-03-05T08:47:11.317Z,992.2
2019-03-05T08:48:12.712Z,992.2
2019-03-05T08:49:14.110Z,992.3
2019-03-05T08:50:15.509Z,992.2
2019-03-05T08:51:16.909Z,992.3
2019-03-05T08:52:18.300Z,992.3
2019-03-05T08:53:19.701Z,992.3
2019-03-05T08:54:21.105Z,992.3
2019-03-05T08:55:22.500Z,992.2
2019-03-05T08:56:23.900Z,992.3
2019-03-05T08:57:25.295Z,992.3
2019-03-05T08:58:26.689Z,992.3
2019-03-05T08:59:28.083Z,992.3
2019-03-05T09:00:29.481Z,992.3
2019-03-05T09:01:30.876Z,992.4
2019-03-05T09:02:32.267Z,992.4
2019-03-05T09:03:33.663Z,992.4
2019-03-05T09:04:35.066Z,992.4
2019-03-05T09:05:36.459Z,992.4
2019-03-05T09:06:37.855Z,992.4
2019-03-05T09:07:39.252Z,992.5
2019-03-05T09:08:40.649Z,992.5
2019-03-05T09:09:42.048Z,992.5
2019-03-05T09:10:43.445Z,992.5
2019-03-05T09:11:44.841Z,992.5
2019-03-05T09:12:46.235Z,992.6
2019-03-05T09:13:47.636Z,992.5
2019-03-05T09:14:49.037Z,992.5
2019-03-05T09:15:50.438Z,992.5
2019-03-05T09:16:51.902Z,992.5
2019-03-05T09:17:53.279Z,992.5
2019-03-05T09:18:54.672Z,992.5
2019-03-05T09:19:56.070Z,992.6
2019-03-05T09:20:57.467Z,992.5
2019-03-05T09:21:58.865Z,992.5
2019-03-05T09:23:00.261Z,992.5
2019-03-05T09:24:01.654Z,992.5
2019-03-05T09:25:03.048Z,992.5
2019-03-05T09:26:04.441Z,992.5
2019-03-05T09:27:05.899Z,992.5
2019-03-05T09:28:07.488Z,992.5
2019-03-05T09:29:08.663Z,992.5
2019-03-05T09:30:10.071Z,992.5
2019-03-05T09:31:11.455Z,992.6
2019-03-05T09:32:12.852Z,992.5
2019-03-05T09:33:14.253Z,992.6
2019-03-05T09:34:15.721Z,992.6
2019-03-05T09:35:17.023Z,992.6
2019-03-05T09:36:18.444Z,992.5
2019-03-05T09:37:19.851Z,992.6
2019-03-05T09:38:21.246Z,992.6
2019-03-05T09:39:22.645Z,992.7
2019-03-05T09:40:24.051Z,992.7
2019-03-05T09:41:25.450Z,992.7
2019-03-05T09:42:26.844Z,992.7
2019-03-05T09:43:28.248Z,992.8
2019-03-05T09:44:29.640Z,992.8
2019-03-05T09:45:31.033Z,992.8
2019-03-05T09:46:32.433Z,992.8
2019-03-05T09:47:33.828Z,992.8
2019-03-05T09:48:35.228Z,992.8
2019-03-05T09:49:36.629Z,992.7
2019-03-05T09:50:38.021Z,992.7
2019-03-05T09:51:39.420Z,992.7
2019-03-05T09:52:40.817Z,992.8
2019-03-05T09:53:42.219Z,992.8
2019-03-05T09:54:43.617Z,992.8
2019-03-05T09:55:45.012Z,992.9
2019-03-05T09:56:46.422Z,992.8
2019-03-05T09:57:47.909Z,992.8
2019-03-05T09:58:49.303Z,992.8
2019-03-05T09:59:50.866Z,992.7
2019-03-05T10:00:52.302Z,992.8
2019-03-05T10:01:53.698Z,992.7
2019-03-05T10:02:55.146Z,992.8
2019-03-05T10:03:56.643Z,992.7
2019-03-05T10:04:58.040Z,992.8
2019-03-05T10:05:59.510Z,992.8
2019-03-05T10:07:00.896Z,992.8
2019-03-05T10:08:02.327Z,992.8
2019-03-05T10:09:03.793Z,992.8
2019-03-05T10:10:05.196Z,992.7
2019-03-05T10:11:06.590Z,992.7
2019-03-05T10:12:07.990Z,992.8
2019-03-05T10:13:09.390Z,992.7
2019-03-05T10:14:10.785Z,992.7
2019-03-05T10:15:12.305Z,992.8
2019-03-05T10:16:13.823Z,992.8
2019-03-05T10:17:15.147Z,992.8
2019-03-05T10:18:16.543Z,992.8
2019-03-05T10:19:17.940Z,992.8
2019-03-05T10:20:19.355Z,992.9
2019-03-05T10:21:20.817Z,992.9
2019-03-05T10:22:22.201Z,992.9
2019-03-05T10:23:23.594Z,992.9
2019-03-05T10:24:25.021Z,992.9
2019-03-05T10:25:26.393Z,992.8
2019-03-05T10:26:27.795Z,992.9
2019-03-05T10:27:29.199Z,992.9
2019-03-05T10:28:30.590Z,992.9
2019-03-05T10:29:31.982Z,992.9
2019-03-05T10:30:33.377Z,992.9
2019-03-05T10:31:34.774Z,992.9
2019-03-05T10:32:36.174Z,992.9
2019-03-05T10:33:37.571Z,992.9
2019-03-05T10:34:38.970Z,992.9
2019-03-05T10:35:40.361Z,992.8
2019-03-05T10:36:41.761Z,992.8
2019-03-05T10:37:43.156Z,992.8
2019-03-05T10:38:44.554Z,992.8
2019-03-05T10:39:45.949Z,992.8
2019-03-05T10:40:47.386Z,992.7
2019-03-05T10:41:48.779Z,992.8
2019-03-05T10:42:50.174Z,992.8
2019-03-05T10:43:51.569Z,992.8
2019-03-05T10:44:52.962Z,992.8
2019-03-05T10:45:54.360Z,992.9
2019-03-05T10:46:56.198Z,992.9
2019-03-05T10:47:57.111Z,992.9
2019-03-05T10:48:58.506Z,992.9
2019-03-05T10:49:59.903Z,992.9
2019-03-05T10:51:01.310Z,992.9
2019-03-05T10:52:02.709Z,993.0
2019-03-05T10:53:04.110Z,992.9
2019-03-05T10:54:05.508Z,992.9
2019-03-05T10:55:06.911Z,992.9
2019-03-05T10:56:08.308Z,992.9
2019-03-05T10:57:09.702Z,992.9
2019-03-05T10:58:11.091Z,992.9
2019-03-05T10:59:12.499Z,992.9
2019-03-05T11:00:13.889Z,992.9
2019-03-05T11:01:15.288Z,992.9
2019-03-05T11:02:16.682Z,993.0
2019-03-05T11:03:18.084Z,992.9
2019-03-05T11:04:19.479Z,993.0
2019-03-05T11:05:20.935Z,993.0
2019-03-05T11:06:22.366Z,993.0
2019-03-05T11:07:23.765Z,993.0
2019-03-05T11:08:25.160Z,993.0
2019-03-05T11:09:26.558Z,993.0
2019-03-05T11:10:27.954Z,993.0
2019-03-05T11:11:29.352Z,993.0
2019-03-05T11:12:30.791Z,993.1
2019-03-05T11:13:32.312Z,993.0
2019-03-05T11:14:33.724Z,993.0
2019-03-05T11:15:35.122Z,993.0
2019-03-05T11:16:36.519Z,993.0
2019-03-05T11:17:37.926Z,993.0
2019-03-05T11:18:39.328Z,993.1
2019-03-05T11:19:40.815Z,993.0
2019-03-05T11:20:42.112Z,993.1
2019-03-05T11:21:43.510Z,993.1
2019-03-05T11:22:44.905Z,993.1
2019-03-05T11:23:46.301Z,993.0
2019-03-05T11:24:47.707Z,993.1
2019-03-05T11:25:49.102Z,993.1
2019-03-05T11:26:50.496Z,993.1
2019-03-05T11:27:51.890Z,993.1
2019-03-05T11:28:54.668Z,993.1
2019-03-05T11:29:54.644Z,993.1
2019-03-05T11:30:56.041Z,993.1
2019-03-05T11:31:57.434Z,993.1
2019-03-05T11:32:58.830Z,993.1
2019-03-05T11:34:00.221Z,993.1
2019-03-05T11:35:01.635Z,993.1
2019-03-05T11:36:03.035Z,993.2
2019-03-05T11:37:04.427Z,993.2
2019-03-05T11:38:05.822Z,993.2
2019-03-05T11:39:07.223Z,993.2
2019-03-05T11:40:09.219Z,993.2
2019-03-05T11:41:09.972Z,993.2
2019-03-05T11:42:11.382Z,993.2
2019-03-05T11:43:12.924Z,993.2
2019-03-05T11:44:14.136Z,993.2
2019-03-05T11:45:15.534Z,993.3
2019-03-05T11:46:16.936Z,993.2
2019-03-05T11:47:18.331Z,993.3
2019-03-05T11:48:19.722Z,993.3
2019-03-05T11:49:21.122Z,993.3
2019-03-05T11:50:22.511Z,993.3
2019-03-05T11:51:23.908Z,993.3
2019-03-05T11:52:25.300Z,993.3
2019-03-05T11:53:26.704Z,993.3
2019-03-05T11:54:28.110Z,993.3
2019-03-05T11:55:29.566Z,993.4
2019-03-05T11:56:30.974Z,993.4
2019-03-05T11:57:32.375Z,993.3
2019-03-05T11:58:33.773Z,993.4
2019-03-05T11:59:35.176Z,993.4
2019-03-05T12:00:36.576Z,993.4
2019-03-05T12:01:37.972Z,993.5
2019-03-05T12:02:39.364Z,993.5
2019-03-05T12:03:40.758Z,993.5
2019-03-05T12:04:42.157Z,993.5
2019-03-05T12:05:43.550Z,993.5
2019-03-05T12:06:44.945Z,993.5
2019-03-05T12:07:46.347Z,993.5
2019-03-05T12:08:47.741Z,993.5
2019-03-05T12:09:49.133Z,993.5
2019-03-05T12:10:50.538Z,993.4
2019-03-05T12:11:51.938Z,993.4
2019-03-05T12:12:53.339Z,993.5
2019-03-05T12:13:54.738Z,993.4
2019-03-05T12:14:56.133Z,993.5
2019-03-05T12:15:57.530Z,993.5
2019-03-05T12:16:58.929Z,993.5
2019-03-05T12:18:00.324Z,993.6
2019-03-05T12:19:01.747Z,993.5
2019-03-05T12:20:03.146Z,993.6
2019-03-05T12:21:04.543Z,993.5
2019-03-05T12:22:05.937Z,993.6
2019-03-05T12:23:10.226Z,993.5
2019-03-05T12:24:08.691Z,993.6
2019-03-05T12:25:10.108Z,993.6
2019-03-05T12:26:11.514Z,993.6
2019-03-05T12:27:12.908Z,993.6
2019-03-05T12:28:14.312Z,993.6
2019-03-05T12:29:15.750Z,993.6
2019-03-05T12:30:17.150Z,993.6
2019-03-05T12:31:18.546Z,993.6
2019-03-05T12:32:19.939Z,993.6
2019-03-05T12:33:21.371Z,993.5
2019-03-05T12:34:22.759Z,993.6
2019-03-05T12:35:24.158Z,993.7
2019-03-05T12:36:25.555Z,993.6
2019-03-05T12:37:26.970Z,993.7
2019-03-05T12:38:28.376Z,993.6
2019-03-05T12:39:29.779Z,993.6
2019-03-05T12:40:31.160Z,993.6
2019-03-05T12:41:32.562Z,993.6
2019-03-05T12:42:33.968Z,993.6
2019-03-05T12:43:35.382Z,993.7
2019-03-05T12:44:36.869Z,993.6
2019-03-05T12:45:38.292Z,993.6
2019-03-05T12:46:39.692Z,993.6
2019-03-05T12:47:41.124Z,993.6
2019-03-05T12:48:42.522Z,993.6
2019-03-05T12:49:43.914Z,993.6
2019-03-05T12:50:45.309Z,993.6
2019-03-05T12:51:46.709Z,993.6
2019-03-05T12:52:48.105Z,993.7
2019-03-05T12:53:49.497Z,993.8
2019-03-05T12:54:50.891Z,993.7
2019-03-05T12:55:52.287Z,993.8
2019-03-05T12:56:53.696Z,993.8
2019-03-05T12:57:55.084Z,993.8
2019-03-05T12:58:56.476Z,993.7
2019-03-05T12:59:57.869Z,993.8
2019-03-05T13:00:59.266Z,993.8
2019-03-05T13:02:00.743Z,993.8
2019-03-05T13:03:02.018Z,993.9
2019-03-05T13:04:03.422Z,993.9
2019-03-05T13:05:04.818Z,993.9
2019-03-05T13:06:06.214Z,993.8
2019-03-05T13:07:07.608Z,993.9
2019-03-05T13:08:09.005Z,993.8
2019-03-05T13:09:13.642Z,993.8
2019-03-05T13:10:11.758Z,993.8